GAF359 EDDE-EDDN
Flight info
| Callsign | GAF359 |
|---|---|
| Flight time | 0h 43m |
| Altitude | 18000 |
| Route | PILAM/N0425F170 DCT RATIP/N0419F160 DCT DODAS DODAS1T |
| Aircraft | A359/H-SDE2E3GHIJ3J4J5LM1ORWXY/LB1D1 |
Departure
| Time | 2026-04-28 13:04 |
|---|---|
| Airport | Erfurt-Weimar Airport (EDDE) |
Arrival
| Time | 2026-04-28 13:47 |
|---|---|
| Airport | Nuremberg Airport (EDDN) |
| Time | Latitude | Longitude | Altitude | Speed | Heading |
|---|---|---|---|---|---|
| 2026-04-28 12:45 | 50.97598 | 10.95967 | 1046 ft | 0 kts | 162° |
| 2026-04-28 12:56 | 50.97613 | 10.95959 | 1046 ft | 3 kts | 162° |
| 2026-04-28 12:57 | 50.97631 | 10.95950 | 1047 ft | 3 kts | 162° |
| 2026-04-28 12:57 | 50.97649 | 10.95941 | 1047 ft | 3 kts | 173° |
| 2026-04-28 12:57 | 50.97667 | 10.95938 | 1047 ft | 3 kts | 173° |
| 2026-04-28 12:57 | 50.97685 | 10.95937 | 1047 ft | 3 kts | 184° |
| 2026-04-28 12:58 | 50.97703 | 10.95939 | 1047 ft | 3 kts | 191° |
| 2026-04-28 12:58 | 50.97720 | 10.95944 | 1047 ft | 2 kts | 191° |
| 2026-04-28 12:58 | 50.97737 | 10.95949 | 1047 ft | 3 kts | 200° |
| 2026-04-28 12:58 | 50.97754 | 10.95965 | 1047 ft | 3 kts | 241° |
| 2026-04-28 12:59 | 50.97759 | 10.95983 | 1048 ft | 0 kts | 265° |
| 2026-04-28 12:59 | 50.97760 | 10.95974 | 1047 ft | 0 kts | 273° |
| 2026-04-28 13:00 | 50.97760 | 10.95969 | 1047 ft | 5 kts | 273° |
| 2026-04-28 13:00 | 50.97769 | 10.95797 | 1047 ft | 26 kts | 277° |
| 2026-04-28 13:01 | 50.97793 | 10.95501 | 1049 ft | 28 kts | 277° |
| 2026-04-28 13:01 | 50.97818 | 10.95190 | 1051 ft | 29 kts | 277° |
| 2026-04-28 13:01 | 50.97868 | 10.94887 | 1052 ft | 28 kts | 298° |
| 2026-04-28 13:01 | 50.97913 | 10.94588 | 1054 ft | 28 kts | 277° |
| 2026-04-28 13:02 | 50.97934 | 10.94317 | 1055 ft | 26 kts | 277° |
| 2026-04-28 13:02 | 50.98014 | 10.94090 | 1056 ft | 24 kts | 320° |
| 2026-04-28 13:02 | 50.98114 | 10.94070 | 1055 ft | 6 kts | 51° |
| 2026-04-28 13:02 | 50.98114 | 10.94095 | 1055 ft | 0 kts | 95° |
| 2026-04-28 13:03 | 50.98113 | 10.94119 | 1055 ft | 21 kts | 95° |
| 2026-04-28 13:03 | 50.98051 | 10.94929 | 1054 ft | 124 kts | 97° |
| 2026-04-28 13:03 | 50.97910 | 10.96679 | 1426 ft | 178 kts | 93° |
| 2026-04-28 13:04 | 50.97686 | 10.98685 | 2625 ft | 189 kts | 97° |
| 2026-04-28 13:04 | 50.97425 | 11.00926 | 3521 ft | 229 kts | 96° |
| 2026-04-28 13:04 | 50.97146 | 11.03581 | 4414 ft | 256 kts | 97° |
| 2026-04-28 13:04 | 50.96855 | 11.06296 | 5494 ft | 248 kts | 98° |
| 2026-04-28 13:05 | 50.96580 | 11.09019 | 6241 ft | 251 kts | 98° |
| 2026-04-28 13:05 | 50.96297 | 11.11780 | 6881 ft | 255 kts | 97° |
| 2026-04-28 13:05 | 50.96010 | 11.14582 | 7197 ft | 261 kts | 98° |
| 2026-04-28 13:05 | 50.95719 | 11.17445 | 7267 ft | 263 kts | 97° |
| 2026-04-28 13:06 | 50.95404 | 11.20308 | 7257 ft | 265 kts | 101° |
| 2026-04-28 13:06 | 50.94678 | 11.22989 | 7372 ft | 269 kts | 123° |
| 2026-04-28 13:06 | 50.93286 | 11.24991 | 7928 ft | 276 kts | 146° |
| 2026-04-28 13:06 | 50.91569 | 11.26412 | 8692 ft | 280 kts | 152° |
| 2026-04-28 13:07 | 50.89794 | 11.27731 | 9411 ft | 284 kts | 153° |
| 2026-04-28 13:07 | 50.87905 | 11.28763 | 10064 ft | 292 kts | 168° |
| 2026-04-28 13:07 | 50.85857 | 11.28654 | 10553 ft | 304 kts | 194° |
| 2026-04-28 13:07 | 50.84559 | 11.27746 | 10728 ft | 315 kts | 214° |
| 2026-04-28 13:08 | 50.82371 | 11.24454 | 11124 ft | 336 kts | 230° |
| 2026-04-28 13:08 | 50.80885 | 11.21491 | 11401 ft | 351 kts | 234° |
| 2026-04-28 13:08 | 50.79455 | 11.18359 | 11795 ft | 359 kts | 235° |
| 2026-04-28 13:08 | 50.78003 | 11.15120 | 12332 ft | 363 kts | 235° |
| 2026-04-28 13:09 | 50.76524 | 11.11881 | 12972 ft | 364 kts | 235° |
| 2026-04-28 13:09 | 50.75015 | 11.08658 | 13611 ft | 365 kts | 234° |
| 2026-04-28 13:09 | 50.73479 | 11.05444 | 14181 ft | 368 kts | 235° |
| 2026-04-28 13:09 | 50.71761 | 11.02414 | 14694 ft | 373 kts | 224° |
| 2026-04-28 13:10 | 50.69771 | 10.99781 | 15221 ft | 376 kts | 220° |
| 2026-04-28 13:10 | 50.67668 | 10.97291 | 15737 ft | 379 kts | 218° |
| 2026-04-28 13:10 | 50.65499 | 10.94890 | 16247 ft | 382 kts | 218° |
| 2026-04-28 13:10 | 50.63296 | 10.92519 | 16738 ft | 385 kts | 216° |
| 2026-04-28 13:11 | 50.61076 | 10.90145 | 17230 ft | 387 kts | 217° |
| 2026-04-28 13:11 | 50.58846 | 10.87756 | 17763 ft | 390 kts | 218° |
| 2026-04-28 13:11 | 50.56599 | 10.85335 | 18147 ft | 391 kts | 218° |
| 2026-04-28 13:11 | 50.54315 | 10.82857 | 18200 ft | 409 kts | 217° |
| 2026-04-28 13:12 | 50.51929 | 10.80247 | 18195 ft | 422 kts | 217° |
| 2026-04-28 13:12 | 50.49511 | 10.77610 | 18199 ft | 423 kts | 217° |
| 2026-04-28 13:12 | 50.47070 | 10.75019 | 18191 ft | 425 kts | 214° |
| 2026-04-28 13:12 | 50.44389 | 10.73039 | 18193 ft | 429 kts | 200° |
| 2026-04-28 13:13 | 50.41443 | 10.72229 | 18195 ft | 433 kts | 183° |
| 2026-04-28 13:13 | 50.38425 | 10.72510 | 18194 ft | 436 kts | 175° |
| 2026-04-28 13:13 | 50.35427 | 10.73254 | 18184 ft | 436 kts | 171° |
| 2026-04-28 13:13 | 50.32455 | 10.74225 | 18174 ft | 435 kts | 169° |
| 2026-04-28 13:14 | 50.29577 | 10.75243 | 17697 ft | 426 kts | 169° |
| 2026-04-28 13:14 | 50.26700 | 10.76265 | 16998 ft | 422 kts | 169° |
| 2026-04-28 13:14 | 50.23842 | 10.77253 | 16212 ft | 420 kts | 169° |
| 2026-04-28 13:14 | 50.21005 | 10.78199 | 15633 ft | 414 kts | 170° |
| 2026-04-28 13:15 | 50.18202 | 10.79102 | 15120 ft | 406 kts | 170° |
| 2026-04-28 13:15 | 50.15482 | 10.79960 | 14873 ft | 392 kts | 170° |
| 2026-04-28 13:15 | 50.12851 | 10.80783 | 14508 ft | 382 kts | 169° |
| 2026-04-28 13:15 | 50.10231 | 10.81579 | 13586 ft | 387 kts | 171° |
| 2026-04-28 13:16 | 50.08411 | 10.81919 | 12818 ft | 392 kts | 177° |
| 2026-04-28 13:16 | 50.05698 | 10.81645 | 12435 ft | 393 kts | 192° |
| 2026-04-28 13:16 | 50.03093 | 10.80371 | 12205 ft | 390 kts | 203° |
| 2026-04-28 13:16 | 50.00607 | 10.78704 | 11942 ft | 387 kts | 205° |
| 2026-04-28 13:17 | 49.98161 | 10.76971 | 11699 ft | 386 kts | 205° |
| 2026-04-28 13:17 | 49.95760 | 10.75243 | 11445 ft | 385 kts | 205° |
| 2026-04-28 13:17 | 49.93400 | 10.73534 | 11281 ft | 375 kts | 205° |
| 2026-04-28 13:17 | 49.91091 | 10.71859 | 11163 ft | 356 kts | 205° |
| 2026-04-28 13:18 | 49.88903 | 10.70269 | 11057 ft | 339 kts | 205° |
| 2026-04-28 13:18 | 49.86822 | 10.68757 | 10952 ft | 322 kts | 205° |
| 2026-04-28 13:18 | 49.84836 | 10.67313 | 10832 ft | 308 kts | 205° |
| 2026-04-28 13:18 | 49.82936 | 10.65932 | 10721 ft | 295 kts | 205° |
| 2026-04-28 13:19 | 49.81096 | 10.64597 | 10601 ft | 290 kts | 205° |
| 2026-04-28 13:19 | 49.79305 | 10.63298 | 10463 ft | 279 kts | 205° |
| 2026-04-28 13:19 | 49.77574 | 10.62044 | 10238 ft | 272 kts | 205° |
| 2026-04-28 13:19 | 49.75863 | 10.60804 | 9938 ft | 276 kts | 204° |
| 2026-04-28 13:20 | 49.74076 | 10.59512 | 9700 ft | 288 kts | 204° |
| 2026-04-28 13:20 | 49.72251 | 10.58193 | 9450 ft | 289 kts | 204° |
| 2026-04-28 13:20 | 49.70434 | 10.56880 | 8951 ft | 289 kts | 204° |
| 2026-04-28 13:20 | 49.68618 | 10.55570 | 8571 ft | 287 kts | 204° |
| 2026-04-28 13:21 | 49.66817 | 10.54271 | 8232 ft | 285 kts | 203° |
| 2026-04-28 13:21 | 49.64972 | 10.53149 | 7915 ft | 284 kts | 193° |
| 2026-04-28 13:21 | 49.63042 | 10.52585 | 7612 ft | 282 kts | 186° |
| 2026-04-28 13:21 | 49.61099 | 10.52163 | 7292 ft | 281 kts | 185° |
| 2026-04-28 13:22 | 49.59165 | 10.51817 | 6987 ft | 278 kts | 180° |
| 2026-04-28 13:22 | 49.57284 | 10.52218 | 6665 ft | 271 kts | 157° |
| 2026-04-28 13:22 | 49.55785 | 10.53851 | 6318 ft | 263 kts | 125° |
| 2026-04-28 13:22 | 49.55031 | 10.56313 | 6137 ft | 248 kts | 105° |
| 2026-04-28 13:23 | 49.54635 | 10.58834 | 6053 ft | 236 kts | 99° |
| 2026-04-28 13:23 | 49.54382 | 10.61276 | 5972 ft | 226 kts | 97° |
| 2026-04-28 13:23 | 49.54162 | 10.63591 | 5850 ft | 217 kts | 97° |
| 2026-04-28 13:23 | 49.53955 | 10.65849 | 5648 ft | 210 kts | 97° |
| 2026-04-28 13:24 | 49.53758 | 10.68040 | 5433 ft | 204 kts | 96° |
| 2026-04-28 13:24 | 49.53564 | 10.70147 | 5237 ft | 195 kts | 96° |
| 2026-04-28 13:24 | 49.53374 | 10.72168 | 5019 ft | 187 kts | 96° |
| 2026-04-28 13:24 | 49.53185 | 10.74131 | 4799 ft | 183 kts | 96° |
| 2026-04-28 13:25 | 49.52993 | 10.76023 | 4584 ft | 174 kts | 96° |
| 2026-04-28 13:25 | 49.52807 | 10.77849 | 4342 ft | 171 kts | 96° |
| 2026-04-28 13:25 | 49.52632 | 10.79578 | 4207 ft | 152 kts | 96° |
| 2026-04-28 13:25 | 49.52485 | 10.81064 | 4200 ft | 133 kts | 95° |
| 2026-04-28 13:26 | 49.52352 | 10.82451 | 4070 ft | 130 kts | 95° |
| 2026-04-28 13:26 | 49.52219 | 10.83841 | 3899 ft | 132 kts | 96° |
| 2026-04-28 13:26 | 49.52081 | 10.85222 | 3739 ft | 130 kts | 96° |
| 2026-04-28 13:26 | 49.51944 | 10.86612 | 3529 ft | 130 kts | 95° |
| 2026-04-28 13:27 | 49.51814 | 10.87962 | 3345 ft | 126 kts | 96° |
| 2026-04-28 13:27 | 49.51678 | 10.89330 | 3184 ft | 131 kts | 95° |
| 2026-04-28 13:27 | 49.51544 | 10.90722 | 2999 ft | 131 kts | 96° |
| 2026-04-28 13:27 | 49.51410 | 10.92091 | 2813 ft | 128 kts | 95° |
| 2026-04-28 13:28 | 49.51280 | 10.93429 | 2675 ft | 127 kts | 94° |
| 2026-04-28 13:28 | 49.51149 | 10.94777 | 2490 ft | 127 kts | 93° |
| 2026-04-28 13:28 | 49.51016 | 10.96118 | 2319 ft | 127 kts | 94° |
| 2026-04-28 13:28 | 49.50883 | 10.97464 | 2153 ft | 125 kts | 95° |
| 2026-04-28 13:29 | 49.50753 | 10.98792 | 1997 ft | 127 kts | 95° |
| 2026-04-28 13:29 | 49.50621 | 11.00142 | 1818 ft | 130 kts | 95° |
| 2026-04-28 13:29 | 49.50486 | 11.01523 | 1649 ft | 131 kts | 96° |
| 2026-04-28 13:29 | 49.50351 | 11.02892 | 1456 ft | 127 kts | 98° |
| 2026-04-28 13:30 | 49.50219 | 11.04237 | 1272 ft | 134 kts | 98° |
| 2026-04-28 13:30 | 49.50085 | 11.05632 | 1329 ft | 138 kts | 98° |
| 2026-04-28 13:30 | 49.49936 | 11.07193 | 2152 ft | 152 kts | 98° |
| 2026-04-28 13:30 | 49.49769 | 11.08819 | 3255 ft | 158 kts | 97° |
| 2026-04-28 13:31 | 49.49400 | 11.12568 | 4128 ft | 209 kts | 96° |
| 2026-04-28 13:31 | 49.49170 | 11.14985 | 4180 ft | 243 kts | 97° |
| 2026-04-28 13:31 | 49.48909 | 11.17626 | 4166 ft | 253 kts | 98° |
| 2026-04-28 13:32 | 49.48679 | 11.20312 | 4194 ft | 253 kts | 92° |
| 2026-04-28 13:32 | 49.48835 | 11.22996 | 4198 ft | 252 kts | 74° |
| 2026-04-28 13:32 | 49.49494 | 11.25468 | 4201 ft | 249 kts | 66° |
| 2026-04-28 13:32 | 49.49865 | 11.28069 | 4208 ft | 253 kts | 91° |
| 2026-04-28 13:33 | 49.49379 | 11.30626 | 4250 ft | 252 kts | 120° |
| 2026-04-28 13:33 | 49.48106 | 11.32508 | 4547 ft | 270 kts | 144° |
| 2026-04-28 13:33 | 49.46319 | 11.33826 | 4898 ft | 288 kts | 161° |
| 2026-04-28 13:33 | 49.44388 | 11.33957 | 5013 ft | 280 kts | 188° |
| 2026-04-28 13:34 | 49.42628 | 11.32781 | 5009 ft | 279 kts | 215° |
| 2026-04-28 13:34 | 49.41374 | 11.30496 | 5005 ft | 283 kts | 243° |
| 2026-04-28 13:34 | 49.40905 | 11.27598 | 5022 ft | 282 kts | 270° |
| 2026-04-28 13:34 | 49.41298 | 11.24691 | 5000 ft | 277 kts | 296° |
| 2026-04-28 13:35 | 49.42205 | 11.22091 | 4991 ft | 276 kts | 306° |
| 2026-04-28 13:35 | 49.43378 | 11.19763 | 4994 ft | 276 kts | 314° |
| 2026-04-28 13:35 | 49.44670 | 11.17585 | 4995 ft | 276 kts | 313° |
| 2026-04-28 13:35 | 49.45933 | 11.15356 | 4991 ft | 277 kts | 314° |
| 2026-04-28 13:36 | 49.47204 | 11.13118 | 4988 ft | 277 kts | 314° |
| 2026-04-28 13:36 | 49.48476 | 11.10892 | 4987 ft | 277 kts | 314° |
| 2026-04-28 13:36 | 49.49688 | 11.08597 | 4997 ft | 278 kts | 305° |
| 2026-04-28 13:36 | 49.50590 | 11.05964 | 4987 ft | 278 kts | 296° |
| 2026-04-28 13:37 | 49.51375 | 11.03225 | 4988 ft | 280 kts | 295° |
| 2026-04-28 13:37 | 49.52132 | 11.00470 | 4994 ft | 279 kts | 295° |
| 2026-04-28 13:37 | 49.52881 | 10.97711 | 4990 ft | 279 kts | 295° |
| 2026-04-28 13:37 | 49.53629 | 10.94946 | 4994 ft | 282 kts | 295° |
| 2026-04-28 13:38 | 49.54382 | 10.92170 | 4992 ft | 280 kts | 295° |
| 2026-04-28 13:38 | 49.55112 | 10.89442 | 5007 ft | 279 kts | 294° |
| 2026-04-28 13:38 | 49.55847 | 10.86676 | 4990 ft | 279 kts | 295° |
| 2026-04-28 13:38 | 49.56581 | 10.83930 | 5003 ft | 270 kts | 295° |
| 2026-04-28 13:39 | 49.57274 | 10.81333 | 5003 ft | 254 kts | 295° |
| 2026-04-28 13:39 | 49.57917 | 10.78881 | 5003 ft | 239 kts | 294° |
| 2026-04-28 13:39 | 49.58219 | 10.76456 | 5003 ft | 224 kts | 268° |
| 2026-04-28 13:39 | 49.57814 | 10.74262 | 4990 ft | 205 kts | 237° |
| 2026-04-28 13:40 | 49.56872 | 10.72769 | 5061 ft | 191 kts | 205° |
| 2026-04-28 13:40 | 49.55626 | 10.72314 | 4874 ft | 182 kts | 173° |
| 2026-04-28 13:40 | 49.54407 | 10.72631 | 4622 ft | 172 kts | 158° |
| 2026-04-28 13:40 | 49.53525 | 10.73636 | 4353 ft | 152 kts | 116° |
| 2026-04-28 13:41 | 49.53133 | 10.75057 | 4203 ft | 136 kts | 99° |
| 2026-04-28 13:41 | 49.52961 | 10.76422 | 4219 ft | 130 kts | 94° |
| 2026-04-28 13:41 | 49.52822 | 10.77804 | 4198 ft | 130 kts | 96° |
| 2026-04-28 13:41 | 49.52686 | 10.79173 | 4192 ft | 129 kts | 96° |
| 2026-04-28 13:42 | 49.52550 | 10.80535 | 4197 ft | 129 kts | 95° |
| 2026-04-28 13:42 | 49.52412 | 10.81903 | 4150 ft | 130 kts | 95° |
| 2026-04-28 13:42 | 49.52273 | 10.83274 | 3998 ft | 131 kts | 95° |
| 2026-04-28 13:42 | 49.52135 | 10.84663 | 3789 ft | 129 kts | 95° |
| 2026-04-28 13:43 | 49.52001 | 10.86041 | 3593 ft | 131 kts | 96° |
| 2026-04-28 13:43 | 49.51867 | 10.87411 | 3437 ft | 129 kts | 95° |
| 2026-04-28 13:43 | 49.51734 | 10.88771 | 3252 ft | 128 kts | 96° |
| 2026-04-28 13:43 | 49.51600 | 10.90130 | 3100 ft | 128 kts | 95° |
| 2026-04-28 13:44 | 49.51469 | 10.91482 | 2928 ft | 127 kts | 95° |
| 2026-04-28 13:44 | 49.51340 | 10.92807 | 2764 ft | 128 kts | 94° |
| 2026-04-28 13:44 | 49.51209 | 10.94166 | 2568 ft | 128 kts | 94° |
| 2026-04-28 13:44 | 49.51076 | 10.95515 | 2419 ft | 129 kts | 95° |
| 2026-04-28 13:45 | 49.50942 | 10.96863 | 2216 ft | 125 kts | 95° |
| 2026-04-28 13:45 | 49.50811 | 10.98195 | 2083 ft | 131 kts | 95° |
| 2026-04-28 13:45 | 49.50665 | 10.99569 | 1839 ft | 129 kts | 96° |
| 2026-04-28 13:45 | 49.50510 | 11.00935 | 1575 ft | 132 kts | 97° |
| 2026-04-28 13:46 | 49.50401 | 11.02304 | 1417 ft | 124 kts | 96° |
| 2026-04-28 13:46 | 49.50286 | 11.03610 | 1326 ft | 124 kts | 99° |
| 2026-04-28 13:46 | 49.50145 | 11.04989 | 1173 ft | 135 kts | 99° |
| 2026-04-28 13:46 | 49.50010 | 11.06417 | 1042 ft | 134 kts | 99° |
| 2026-04-28 13:47 | 49.49883 | 11.07684 | 1038 ft | 102 kts | 98° |
| 2026-04-28 13:47 | 49.49792 | 11.08597 | 1034 ft | 73 kts | 99° |
| 2026-04-28 13:47 | 49.49739 | 11.09120 | 1046 ft | 25 kts | 99° |
| 2026-04-28 13:47 | 49.49719 | 11.09384 | 1049 ft | 24 kts | 95° |
| 2026-04-28 13:48 | 49.49673 | 11.09548 | 1051 ft | 12 kts | 162° |
| 2026-04-28 13:48 | 49.49592 | 11.09477 | 1048 ft | 18 kts | 229° |
| 2026-04-28 13:48 | 49.49533 | 11.09298 | 1047 ft | 20 kts | 270° |
| 2026-04-28 13:48 | 49.49554 | 11.09070 | 1044 ft | 24 kts | 279° |
| 2026-04-28 13:49 | 49.49581 | 11.08805 | 1042 ft | 27 kts | 278° |
| 2026-04-28 13:49 | 49.49607 | 11.08514 | 1039 ft | 24 kts | 278° |
| 2026-04-28 13:49 | 49.49593 | 11.08373 | 1038 ft | 5 kts | 207° |
| 2026-04-28 13:49 | 49.49546 | 11.08357 | 1039 ft | 6 kts | 180° |
| 2026-04-28 13:50 | 49.49520 | 11.08392 | 1040 ft | 6 kts | 124° |
| 2026-04-28 13:50 | 49.49502 | 11.08476 | 1040 ft | 10 kts | 103° |
| 2026-04-28 13:50 | 49.49508 | 11.08554 | 1040 ft | 6 kts | 53° |
| 2026-04-28 13:50 | 49.49533 | 11.08566 | 1040 ft | 0 kts | 12° |